Time;durP1;ratioP1;P1;durP2;ratioP2;P2;SDS_P1;SDS_P2;PMS_P1;PMS_P2;Temp;Humidity;BMP_temperature;BMP_pressure;BME280_temperature;BME280_humidity;BME280_pressure;Samples;Min_cycle;Max_cycle;Signal;HPM_P1;HPM_P2
2022/01/29 00:00:15;;;;;;;;;;;7.50;99.90;;;;;;5193319;24;20015;-80
2022/01/29 00:02:41;;;;;;;;;;;7.40;99.90;;;;;;4809555;29;20433;-80
2022/01/29 00:05:07;;;;;;;;;;;7.40;99.90;;;;;;4808525;29;20016;-80
2022/01/29 00:07:33;;;;;;;;;;;7.40;99.90;;;;;;4809733;29;19924;-81
2022/01/29 00:10:03;;;;;;;;;;;7.40;99.90;;;;;;4809874;29;20674;-80
2022/01/29 00:12:29;;;;;;;;;;;7.40;99.90;;;;;;4809485;29;19924;-80
2022/01/29 00:14:55;;;;;;;;;;;7.50;99.90;;;;;;4809304;29;19925;-80
2022/01/29 00:17:23;;;;;;;;;;;7.50;99.90;;;;;;4809422;29;20016;-81
2022/01/29 00:19:49;;;;;;;;;;;7.50;99.90;;;;;;4825714;29;19925;-80
2022/01/29 00:22:14;;;;;;;;;;;8.80;99.90;;;;;;4810001;29;20346;-79
2022/01/29 00:24:40;;;;;;;;;;;7.60;99.90;;;;;;4809877;29;19924;-80
2022/01/29 00:27:09;;;;;;;;;;;7.60;99.90;;;;;;4808643;29;20270;-80
2022/01/29 00:29:38;;;;;;;;;;;7.60;99.90;;;;;;4809773;29;20446;-80
2022/01/29 00:34:37;;;;;;;;;;;7.60;99.90;;;;;;4824283;29;19925;-80
2022/01/29 00:37:03;;;;;;;;;;;8.70;99.90;;;;;;4809306;29;19931;-81
2022/01/29 00:39:29;;;;;;;;;;;7.60;99.90;;;;;;4809183;29;20025;-81
2022/01/29 00:41:55;;;;;;;;;;;7.60;99.90;;;;;;4809529;29;19975;-80
2022/01/29 00:44:20;;;;;;;;;;;7.50;99.90;;;;;;4809404;29;19924;-81
2022/01/29 00:46:46;;;;;;;;;;;7.50;99.90;;;;;;4808458;29;20377;-80
2022/01/29 00:49:12;;;;;;;;;;;7.60;99.90;;;;;;4809090;29;19931;-80
2022/01/29 00:51:38;;;;;;;;;;;7.60;99.90;;;;;;4809157;29;20283;-80
2022/01/29 00:54:03;;;;;;;;;;;7.60;99.90;;;;;;4808287;29;19974;-80
2022/01/29 00:56:39;;;;;;;;;;;7.60;99.90;;;;;;4809344;29;19932;-81
2022/01/29 00:59:05;;;;;;;;;;;8.10;99.90;;;;;;4809123;29;19925;-81
2022/01/29 01:01:31;;;;;;;;;;;7.60;99.90;;;;;;4808702;29;19925;-81
2022/01/29 01:03:56;;;;;;;;;;;7.60;99.90;;;;;;4808862;29;19929;-81
2022/01/29 01:06:22;;;;;;;;;;;7.60;99.90;;;;;;4809397;29;19973;-81
2022/01/29 01:08:47;;;;;;;;;;;7.60;99.90;;;;;;4808524;29;19932;-80
2022/01/29 01:11:13;;;;;;;;;;;7.60;99.90;;;;;;4809281;29;20374;-81
2022/01/29 01:13:38;;;;;;;;;;;7.60;99.90;;;;;;4808998;29;19924;-80
2022/01/29 01:16:04;;;;;;;;;;;7.70;99.90;;;;;;4808524;29;20286;-81
2022/01/29 01:18:30;;;;;;;;;;;7.70;99.90;;;;;;4807816;29;19925;-81
2022/01/29 01:20:55;;;;;;;;;;;7.70;99.90;;;;;;4808581;29;20001;-81
2022/01/29 01:23:21;;;;;;;;;;;7.70;99.90;;;;;;4808707;29;20324;-81
2022/01/29 01:25:47;;;;;;;;;;;7.70;99.90;;;;;;4808728;29;19929;-81
2022/01/29 01:28:12;;;;;;;;;;;7.60;99.90;;;;;;4808325;29;20093;-81
2022/01/29 01:30:38;;;;;;;;;;;7.60;99.90;;;;;;4807496;29;20305;-80
2022/01/29 01:33:04;;;;;;;;;;;7.70;99.90;;;;;;4808178;29;19924;-81
2022/01/29 01:35:34;;;;;;;;;;;7.70;99.90;;;;;;4807135;29;19973;-81
2022/01/29 01:38:15;;;;;;;;;;;7.70;99.90;;;;;;4807774;29;19936;-81
2022/01/29 01:41:01;;;;;;;;;;;7.60;99.90;;;;;;4905516;23;19963;-80
2022/01/29 01:43:28;;;;;;;;;;;7.60;99.90;;;;;;4416961;29;12597697;-81
2022/01/29 01:45:56;;;;;;;;;;;7.60;99.90;;;;;;4837591;29;19924;-81
2022/01/29 01:48:22;;;;;;;;;;;7.70;99.90;;;;;;4827136;29;20381;-81
2022/01/29 01:50:49;;;;;;;;;;;9.00;99.90;;;;;;4826202;29;19968;-81
2022/01/29 01:53:14;;;;;;;;;;;7.70;99.90;;;;;;4826440;29;19932;-80
2022/01/29 01:55:40;;;;;;;;;;;7.70;99.90;;;;;;4842866;29;19929;-81
2022/01/29 01:58:08;;;;;;;;;;;7.60;99.90;;;;;;4826298;29;19925;-81
2022/01/29 02:00:34;;;;;;;;;;;7.60;99.90;;;;;;4846760;29;19928;-81
2022/01/29 02:03:00;;;;;;;;;;;7.50;99.90;;;;;;4844912;29;20337;-81
2022/01/29 02:05:28;;;;;;;;;;;7.50;99.90;;;;;;4844183;29;19931;-80
2022/01/29 02:07:55;;;;;;;;;;;7.60;99.90;;;;;;5001583;24;19931;-81
2022/01/29 02:16:45;;;;;;;;;;;7.50;99.90;;;;;;4806248;29;19936;-81
2022/01/29 02:19:10;;;;;;;;;;;7.60;99.90;;;;;;4822905;29;20025;-81
2022/01/29 02:21:36;;;;;;;;;;;7.60;99.90;;;;;;4823650;29;19987;-81
2022/01/29 02:24:02;;;;;;;;;;;7.60;99.90;;;;;;4823502;29;20631;-80
2022/01/29 02:26:27;;;;;;;;;;;7.60;99.90;;;;;;4807455;29;19931;-80
2022/01/29 02:28:56;;;;;;;;;;;7.70;99.90;;;;;;4808714;29;20020;-81
2022/01/29 02:31:21;;;;;;;;;;;7.70;99.90;;;;;;4807555;29;20481;-81
2022/01/29 02:33:47;;;;;;;;;;;7.60;99.90;;;;;;4860597;24;19924;-81
2022/01/29 02:36:12;;;;;;;;;;;7.60;99.90;;;;;;4807724;29;20385;-81
2022/01/29 02:38:38;;;;;;;;;;;7.60;99.90;;;;;;4807495;29;20043;-81
2022/01/29 02:41:06;;;;;;;;;;;7.70;99.90;;;;;;4807659;29;20024;-80
2022/01/29 02:43:46;;;;;;;;;;;7.70;99.90;;;;;;4808240;29;19975;-81
2022/01/29 02:48:44;;;;;;;;;;;7.70;99.90;;;;;;4807497;29;19989;-80
2022/01/29 02:51:09;;;;;;;;;;;7.70;99.90;;;;;;4807819;29;20348;-79
2022/01/29 02:53:35;;;;;;;;;;;7.70;99.90;;;;;;4807516;29;19991;-79
2022/01/29 02:56:00;;;;;;;;;;;7.70;99.90;;;;;;4807569;29;19948;-79
2022/01/29 02:58:26;;;;;;;;;;;7.70;99.90;;;;;;4807915;29;20267;-79
2022/01/29 03:00:52;;;;;;;;;;;7.70;99.90;;;;;;4823422;29;19921;-79
2022/01/29 03:03:20;;;;;;;;;;;7.70;99.90;;;;;;4807463;29;19929;-80
2022/01/29 03:05:46;;;;;;;;;;;7.70;99.90;;;;;;4807533;29;19925;-80
2022/01/29 03:08:11;;;;;;;;;;;7.70;99.90;;;;;;4807614;29;19921;-81
2022/01/29 03:10:37;;;;;;;;;;;7.70;99.90;;;;;;4807585;29;20011;-80
2022/01/29 03:13:02;;;;;;;;;;;7.70;99.90;;;;;;4807230;29;19925;-81
2022/01/29 03:15:28;;;;;;;;;;;7.80;99.90;;;;;;4807380;29;20410;-80
2022/01/29 03:17:54;;;;;;;;;;;7.80;99.90;;;;;;4807396;29;19931;-81
2022/01/29 03:20:19;;;;;;;;;;;7.80;99.90;;;;;;4807729;29;19981;-81
2022/01/29 03:22:45;;;;;;;;;;;7.80;99.90;;;;;;4807218;29;19925;-81
2022/01/29 03:25:10;;;;;;;;;;;7.90;99.90;;;;;;4807851;29;20392;-81
2022/01/29 03:27:36;;;;;;;;;;;7.90;99.90;;;;;;4953008;23;19924;-80
2022/01/29 03:30:02;;;;;;;;;;;9.10;99.90;;;;;;4825141;29;20293;-80
2022/01/29 03:35:34;;;;;;;;;;;7.20;99.90;;;;;;4840472;29;19931;-81
2022/01/29 03:37:59;;;;;;;;;;;7.80;99.90;;;;;;4825107;29;20296;-81
2022/01/29 03:40:25;;;;;;;;;;;7.80;99.90;;;;;;4826456;29;19924;-81
2022/01/29 03:43:07;;;;;;;;;;;7.80;99.90;;;;;;4838009;29;19932;-81
2022/01/29 03:45:32;;;;;;;;;;;7.90;99.90;;;;;;4811163;29;19925;-81
2022/01/29 03:51:54;;;;;;;;;;;7.90;99.90;;;;;;4826938;29;19923;-80
2022/01/29 03:54:29;;;;;;;;;;;8.80;99.90;;;;;;4825046;29;19924;-81
2022/01/29 03:56:57;;;;;;;;;;;7.90;99.90;;;;;;4827705;29;20342;-81
2022/01/29 03:59:38;;;;;;;;;;;8.30;99.90;;;;;;4828540;29;19925;-81
2022/01/29 04:08:47;;;;;;;;;;;8.10;99.90;;;;;;4810160;29;19931;-80
2022/01/29 04:11:14;;;;;;;;;;;6.40;99.90;;;;;;4810092;29;20352;-80
2022/01/29 04:13:42;;;;;;;;;;;7.90;99.90;;;;;;4810178;29;19971;-80
2022/01/29 04:16:07;;;;;;;;;;;7.90;99.90;;;;;;4810491;29;19924;-80
2022/01/29 04:18:33;;;;;;;;;;;7.90;99.90;;;;;;4809903;29;19928;-80
2022/01/29 04:20:59;;;;;;;;;;;7.90;99.90;;;;;;4824004;29;20087;-80
2022/01/29 04:23:28;;;;;;;;;;;8.00;99.90;;;;;;4828883;29;20401;-80
2022/01/29 04:25:54;;;;;;;;;;;9.10;99.90;;;;;;4827849;29;19928;-81
2022/01/29 04:28:26;;;;;;;;;;;8.00;99.90;;;;;;4828607;29;20025;-80
2022/01/29 04:30:57;;;;;;;;;;;8.00;99.90;;;;;;4827996;29;19932;-81
2022/01/29 04:35:49;;;;;;;;;;;8.00;99.90;;;;;;4816342;29;19932;-81
2022/01/29 04:38:20;;;;;;;;;;;8.00;99.90;;;;;;4809568;29;20352;-81
2022/01/29 04:40:46;;;;;;;;;;;8.90;99.90;;;;;;4809486;29;19924;-80
2022/01/29 04:43:14;;;;;;;;;;;8.10;99.90;;;;;;4809502;29;19925;-79
2022/01/29 04:45:43;;;;;;;;;;;8.00;99.90;;;;;;4809926;29;19925;-79
2022/01/29 04:48:12;;;;;;;;;;;8.10;99.90;;;;;;4809422;29;20022;-79
2022/01/29 04:50:38;;;;;;;;;;;8.10;99.90;;;;;;4809824;29;19931;-80
2022/01/29 04:53:04;;;;;;;;;;;8.10;99.90;;;;;;4822882;29;20385;-80
2022/01/29 04:55:30;;;;;;;;;;;8.10;99.90;;;;;;4827681;29;19932;-81
2022/01/29 04:57:55;;;;;;;;;;;8.10;99.90;;;;;;4827157;29;19924;-80
2022/01/29 05:00:21;;;;;;;;;;;8.20;99.90;;;;;;4816628;29;19925;-81
2022/01/29 05:02:47;;;;;;;;;;;8.20;99.90;;;;;;4885369;24;19932;-80
2022/01/29 05:05:13;;;;;;;;;;;8.20;99.90;;;;;;4823474;29;19963;-80
2022/01/29 05:07:41;;;;;;;;;;;8.20;99.90;;;;;;4809041;29;19924;-80
2022/01/29 05:15:27;;;;;;;;;;;8.90;99.90;;;;;;4826037;29;19931;-81
2022/01/29 05:28:49;;;;;;;;;;;8.20;99.90;;;;;;4826545;29;19925;-80
2022/01/29 05:31:15;;;;;;;;;;;8.20;99.90;;;;;;4825783;29;20023;-81
2022/01/29 05:33:40;;;;;;;;;;;8.60;99.90;;;;;;4826940;29;20738;-81
2022/01/29 05:36:06;;;;;;;;;;;8.20;99.90;;;;;;4826511;29;20369;-80
2022/01/29 05:38:32;;;;;;;;;;;8.20;99.90;;;;;;4826945;29;19928;-80
2022/01/29 05:40:58;;;;;;;;;;;8.30;99.90;;;;;;4827123;29;19991;-81
2022/01/29 05:43:23;;;;;;;;;;;8.30;99.90;;;;;;4826521;29;19925;-81
2022/01/29 05:45:49;;;;;;;;;;;8.30;99.90;;;;;;4814206;29;19932;-80
2022/01/29 05:48:15;;;;;;;;;;;8.30;99.90;;;;;;4808215;29;19924;-81
2022/01/29 05:50:40;;;;;;;;;;;8.40;99.90;;;;;;4807917;29;20298;-81
2022/01/29 05:53:06;;;;;;;;;;;8.30;99.90;;;;;;4808745;29;20027;-80
2022/01/29 05:55:31;;;;;;;;;;;8.30;99.90;;;;;;4816357;29;20388;-81
2022/01/29 05:57:57;;;;;;;;;;;8.30;99.90;;;;;;4826506;29;19924;-81
2022/01/29 06:00:22;;;;;;;;;;;8.40;99.90;;;;;;4826774;29;20477;-81
2022/01/29 06:02:57;;;;;;;;;;;8.40;99.90;;;;;;4824746;29;19932;-80
2022/01/29 06:05:22;;;;;;;;;;;8.40;99.90;;;;;;4825022;29;19929;-81
2022/01/29 06:07:48;;;;;;;;;;;8.40;99.90;;;;;;4820946;29;20396;-81
2022/01/29 06:10:14;;;;;;;;;;;8.40;99.90;;;;;;4815064;29;20008;-81
2022/01/29 06:12:39;;;;;;;;;;;8.40;99.90;;;;;;4812743;29;19924;-80
2022/01/29 06:15:05;;;;;;;;;;;8.40;99.90;;;;;;4817641;29;19924;-80
2022/01/29 06:17:30;;;;;;;;;;;8.30;99.90;;;;;;4827963;29;19999;-81
2022/01/29 06:19:58;;;;;;;;;;;8.30;99.90;;;;;;4826942;29;19932;-81
2022/01/29 06:22:25;;;;;;;;;;;8.30;99.90;;;;;;4818389;29;20019;-81
2022/01/29 06:24:50;;;;;;;;;;;8.30;99.90;;;;;;4816640;29;19924;-80
2022/01/29 06:27:16;;;;;;;;;;;8.40;99.90;;;;;;4814926;29;19931;-81
2022/01/29 06:29:41;;;;;;;;;;;8.30;99.90;;;;;;4812874;29;19933;-81
2022/01/29 06:32:07;;;;;;;;;;;8.30;99.90;;;;;;4817535;29;20335;-81
2022/01/29 06:34:32;;;;;;;;;;;8.30;99.90;;;;;;4838325;29;19982;-81
2022/01/29 06:36:58;;;;;;;;;;;8.30;99.90;;;;;;4817262;29;19929;-80
2022/01/29 06:39:23;;;;;;;;;;;8.40;99.90;;;;;;4841826;29;20297;-81
2022/01/29 06:41:49;;;;;;;;;;;8.40;99.90;;;;;;4826199;29;20361;-81
2022/01/29 06:44:14;;;;;;;;;;;8.40;99.90;;;;;;4826016;29;19924;-82
2022/01/29 06:46:40;;;;;;;;;;;8.40;99.90;;;;;;4825405;29;19932;-81
2022/01/29 06:49:05;;;;;;;;;;;8.30;99.90;;;;;;4825457;29;19960;-81
2022/01/29 06:51:31;;;;;;;;;;;8.30;99.90;;;;;;4825715;29;19935;-81
2022/01/29 06:53:56;;;;;;;;;;;8.30;99.90;;;;;;4825082;29;19924;-81
2022/01/29 06:56:22;;;;;;;;;;;8.20;99.90;;;;;;4826079;29;20338;-81
2022/01/29 06:58:50;;;;;;;;;;;8.30;99.90;;;;;;4825193;29;19924;-81
2022/01/29 07:01:16;;;;;;;;;;;8.30;99.90;;;;;;4810545;29;19929;-80
2022/01/29 07:03:41;;;;;;;;;;;8.30;99.90;;;;;;4807566;29;20281;-80
2022/01/29 07:06:06;;;;;;;;;;;8.20;99.90;;;;;;4807302;29;20016;-81
2022/01/29 07:08:37;;;;;;;;;;;8.20;99.90;;;;;;4807387;29;20430;-81
2022/01/29 07:11:02;;;;;;;;;;;8.20;99.90;;;;;;4807339;29;19986;-81
2022/01/29 07:13:31;;;;;;;;;;;8.30;99.90;;;;;;4807128;29;19928;-78
2022/01/29 07:15:56;;;;;;;;;;;8.30;99.90;;;;;;4822267;29;19932;-77
2022/01/29 07:18:42;;;;;;;;;;;8.20;99.90;;;;;;4828745;29;19925;-79
2022/01/29 07:21:14;;;;;;;;;;;8.20;99.90;;;;;;4825246;29;19925;-79
2022/01/29 07:23:39;;;;;;;;;;;9.50;99.90;;;;;;4828003;29;19928;-80
2022/01/29 07:26:05;;;;;;;;;;;8.20;99.90;;;;;;4828463;29;20014;-78
2022/01/29 07:28:33;;;;;;;;;;;8.20;99.90;;;;;;4828308;29;20012;-76
2022/01/29 07:30:58;;;;;;;;;;;8.20;99.90;;;;;;4826833;29;20406;-79
2022/01/29 07:33:24;;;;;;;;;;;8.20;99.90;;;;;;4828586;29;20373;-78
2022/01/29 07:35:49;;;;;;;;;;;8.30;99.90;;;;;;4827734;29;19924;-77
2022/01/29 07:38:15;;;;;;;;;;;8.30;99.90;;;;;;4828689;29;20007;-78
2022/01/29 07:40:40;;;;;;;;;;;8.20;99.90;;;;;;4828430;29;19928;-83
2022/01/29 07:43:06;;;;;;;;;;;8.20;99.90;;;;;;4827856;29;20060;-76
2022/01/29 07:45:31;;;;;;;;;;;8.20;99.90;;;;;;4838064;29;19924;-77
2022/01/29 07:47:57;;;;;;;;;;;8.30;99.90;;;;;;4809883;29;19976;-78
2022/01/29 07:50:22;;;;;;;;;;;8.30;99.90;;;;;;4810085;29;20020;-75
2022/01/29 07:52:48;;;;;;;;;;;8.40;99.90;;;;;;4809253;29;20012;-74
2022/01/29 07:55:13;;;;;;;;;;;8.40;99.90;;;;;;4825538;29;19999;-75
2022/01/29 07:57:39;;;;;;;;;;;8.40;99.90;;;;;;4810493;29;20356;-74
2022/01/29 08:00:05;;;;;;;;;;;8.40;99.90;;;;;;4814113;29;20014;-76
2022/01/29 08:02:30;;;;;;;;;;;8.40;99.90;;;;;;4828106;29;20019;-78
2022/01/29 08:04:56;;;;;;;;;;;8.40;99.90;;;;;;4817833;29;19972;-75
2022/01/29 08:07:21;;;;;;;;;;;8.40;99.90;;;;;;4842675;29;19930;-76
2022/01/29 08:09:46;;;;;;;;;;;8.50;99.90;;;;;;4826745;29;19924;-77
2022/01/29 08:12:12;;;;;;;;;;;8.50;99.90;;;;;;4826890;29;19924;-77
2022/01/29 08:14:38;;;;;;;;;;;8.50;99.90;;;;;;4822903;29;20027;-77
2022/01/29 08:17:07;;;;;;;;;;;8.60;99.90;;;;;;4823842;29;19924;-76
2022/01/29 08:19:33;;;;;;;;;;;8.60;99.90;;;;;;4826957;29;19928;-78
2022/01/29 08:21:58;;;;;;;;;;;8.70;99.90;;;;;;4827501;29;20225;-76
2022/01/29 08:24:24;;;;;;;;;;;8.70;99.90;;;;;;4825038;29;19931;-77
2022/01/29 08:26:49;;;;;;;;;;;8.70;99.90;;;;;;4822573;29;19930;-76
2022/01/29 08:29:15;;;;;;;;;;;8.70;99.90;;;;;;4819463;29;20409;-77
2022/01/29 08:31:40;;;;;;;;;;;8.70;99.90;;;;;;4848340;29;19934;-77
2022/01/29 08:34:06;;;;;;;;;;;8.70;99.90;;;;;;4821213;29;19924;-77
2022/01/29 08:36:31;;;;;;;;;;;8.60;99.90;;;;;;4822663;29;19920;-77
2022/01/29 08:38:57;;;;;;;;;;;8.70;99.90;;;;;;4810853;29;19928;-77
2022/01/29 08:41:22;;;;;;;;;;;8.70;99.90;;;;;;4819843;29;20023;-76
2022/01/29 08:43:48;;;;;;;;;;;8.70;99.90;;;;;;4834847;29;19924;-77
2022/01/29 08:46:13;;;;;;;;;;;8.70;99.90;;;;;;4823363;29;19924;-77
2022/01/29 08:48:39;;;;;;;;;;;8.80;99.90;;;;;;4825544;29;19925;-77
2022/01/29 08:51:05;;;;;;;;;;;8.90;99.90;;;;;;4813184;29;19928;-77
2022/01/29 08:53:31;;;;;;;;;;;8.90;99.90;;;;;;4819218;29;20422;-76
2022/01/29 08:55:56;;;;;;;;;;;8.90;99.90;;;;;;4835763;29;19924;-77
2022/01/29 08:58:22;;;;;;;;;;;10.40;99.90;;;;;;4844961;29;19979;-76
2022/01/29 09:00:48;;;;;;;;;;;8.90;99.90;;;;;;4960043;24;20296;-76
2022/01/29 09:03:17;;;;;;;;;;;8.90;99.90;;;;;;4827264;29;20221;-77
2022/01/29 09:05:43;;;;;;;;;;;8.90;99.90;;;;;;4816658;29;19932;-77
2022/01/29 09:08:09;;;;;;;;;;;8.90;99.90;;;;;;4821733;29;20373;-76
2022/01/29 09:10:35;;;;;;;;;;;9.00;99.90;;;;;;4838770;29;20000;-76
2022/01/29 09:13:02;;;;;;;;;;;9.10;99.90;;;;;;4811271;29;19924;-76
2022/01/29 09:15:28;;;;;;;;;;;9.10;99.90;;;;;;4823139;29;20011;-76
2022/01/29 09:17:53;;;;;;;;;;;9.00;99.90;;;;;;4815904;29;20401;-76
2022/01/29 09:20:19;;;;;;;;;;;9.00;99.90;;;;;;4821747;29;19928;-76
2022/01/29 09:22:45;;;;;;;;;;;9.20;99.90;;;;;;4811298;29;20480;-76
2022/01/29 09:25:10;;;;;;;;;;;9.10;99.90;;;;;;4837544;29;19947;-76
2022/01/29 09:27:36;;;;;;;;;;;9.10;99.90;;;;;;4815841;29;20299;-77
2022/01/29 09:30:02;;;;;;;;;;;9.10;99.90;;;;;;4820089;29;19925;-77
2022/01/29 09:32:29;;;;;;;;;;;10.10;99.90;;;;;;4823105;29;19924;-77
2022/01/29 09:34:54;;;;;;;;;;;9.20;99.90;;;;;;4822392;29;19929;-77
2022/01/29 09:37:20;;;;;;;;;;;9.20;99.90;;;;;;4811386;29;19928;-76
2022/01/29 09:39:46;;;;;;;;;;;9.20;99.90;;;;;;4812125;29;19991;-77
2022/01/29 09:42:12;;;;;;;;;;;9.20;99.90;;;;;;4816766;29;19981;-77
2022/01/29 09:44:37;;;;;;;;;;;9.30;99.90;;;;;;4812737;24;19929;-75
2022/01/29 09:47:04;;;;;;;;;;;9.40;99.90;;;;;;4801853;29;20287;-75
2022/01/29 09:49:33;;;;;;;;;;;9.40;99.90;;;;;;4796120;29;20354;-75
2022/01/29 09:51:59;;;;;;;;;;;9.40;99.90;;;;;;4799166;29;20011;-76
2022/01/29 09:54:25;;;;;;;;;;;9.50;99.90;;;;;;4793173;29;19948;-76
2022/01/29 09:56:50;;;;;;;;;;;9.40;99.90;;;;;;4805007;29;19925;-76
2022/01/29 09:59:16;;;;;;;;;;;9.50;99.90;;;;;;4801496;29;20370;-75
2022/01/29 10:01:45;;;;;;;;;;;9.80;99.90;;;;;;4790269;29;20015;-75
2022/01/29 10:04:11;;;;;;;;;;;11.20;99.90;;;;;;4790356;29;19929;-75
2022/01/29 10:06:37;;;;;;;;;;;9.80;99.90;;;;;;4820454;29;19931;-78
2022/01/29 10:09:11;;;;;;;;;;;9.80;99.90;;;;;;4802556;29;19960;-88
2022/01/29 10:11:37;;;;;;;;;;;9.90;99.90;;;;;;4800925;29;19925;-79
2022/01/29 10:14:04;;;;;;;;;;;9.90;99.90;;;;;;4805122;29;19932;-77
2022/01/29 10:16:30;;;;;;;;;;;9.90;99.90;;;;;;4789443;29;19924;-79
2022/01/29 10:19:03;;;;;;;;;;;9.90;99.90;;;;;;4802829;29;21348;-78
2022/01/29 10:21:30;;;;;;;;;;;9.80;99.90;;;;;;4806281;29;20435;-78
2022/01/29 10:24:02;;;;;;;;;;;9.80;99.90;;;;;;4806906;29;19953;-77
2022/01/29 10:26:28;;;;;;;;;;;9.70;99.90;;;;;;4806882;29;19931;-77
2022/01/29 10:28:55;;;;;;;;;;;9.70;99.90;;;;;;4807910;29;19981;-77
2022/01/29 10:31:20;;;;;;;;;;;9.80;99.90;;;;;;4806359;29;20293;-78
2022/01/29 10:33:45;;;;;;;;;;;9.60;99.90;;;;;;4789922;29;19925;-77
2022/01/29 10:36:14;;;;;;;;;;;9.60;99.90;;;;;;4805977;29;19932;-77
2022/01/29 10:38:40;;;;;;;;;;;9.60;99.90;;;;;;4788927;29;19974;-77
2022/01/29 10:41:24;;;;;;;;;;;9.60;99.90;;;;;;4789943;29;19925;-77
2022/01/29 10:44:09;;;;;;;;;;;9.60;99.90;;;;;;4809218;29;19931;-77
2022/01/29 10:46:35;;;;;;;;;;;9.70;99.90;;;;;;4811202;29;20044;-78
2022/01/29 10:49:01;;;;;;;;;;;9.60;99.90;;;;;;4826302;29;20377;-78
2022/01/29 10:51:31;;;;;;;;;;;9.60;99.90;;;;;;4829527;29;19950;-77
2022/01/29 10:54:14;;;;;;;;;;;10.80;99.90;;;;;;4829321;29;19932;-77
2022/01/29 10:57:00;;;;;;;;;;;9.60;99.90;;;;;;4829815;29;20381;-77
2022/01/29 10:59:27;;;;;;;;;;;9.60;99.90;;;;;;4829146;29;19929;-77
2022/01/29 11:01:56;;;;;;;;;;;9.70;99.90;;;;;;4827353;29;19973;-77
2022/01/29 11:04:22;;;;;;;;;;;9.70;99.90;;;;;;4829495;29;19932;-75
2022/01/29 11:06:49;;;;;;;;;;;9.80;99.90;;;;;;4828121;29;19925;-77
2022/01/29 11:09:15;;;;;;;;;;;9.80;99.90;;;;;;4829564;29;19985;-77
2022/01/29 11:11:41;;;;;;;;;;;9.80;99.90;;;;;;4845388;29;19932;-77
2022/01/29 11:14:27;;;;;;;;;;;9.80;99.90;;;;;;4829087;29;19954;-78
2022/01/29 11:16:56;;;;;;;;;;;9.90;99.90;;;;;;4915359;24;19938;-78
2022/01/29 11:19:21;;;;;;;;;;;10.00;99.90;;;;;;4828296;29;20344;-78
2022/01/29 11:21:52;;;;;;;;;;;10.20;99.90;;;;;;4828778;29;19928;-78
2022/01/29 11:24:18;;;;;;;;;;;10.10;99.90;;;;;;4829358;29;19929;-78
2022/01/29 11:26:45;;;;;;;;;;;10.20;99.90;;;;;;4825419;29;19943;-78
2022/01/29 11:29:25;;;;;;;;;;;10.20;99.90;;;;;;4860598;24;19925;-78
2022/01/29 11:32:10;;;;;;;;;;;10.00;99.90;;;;;;4811546;29;19983;-76
2022/01/29 11:34:55;;;;;;;;;;;10.30;99.90;;;;;;4792140;29;19932;-77
2022/01/29 11:37:35;;;;;;;;;;;10.40;99.90;;;;;;4792156;29;19925;-78
2022/01/29 11:40:11;;;;;;;;;;;10.40;99.90;;;;;;4791939;29;20435;-78
2022/01/29 11:42:36;;;;;;;;;;;10.40;99.90;;;;;;4793069;29;19969;-78
2022/01/29 11:45:48;;;;;;;;;;;10.50;99.90;;;;;;4792384;29;19976;-79
2022/01/29 11:48:19;;;;;;;;;;;10.60;99.90;;;;;;4737571;30;19983;-76
2022/01/29 11:50:47;;;;;;;;;;;10.80;99.90;;;;;;4737941;30;19926;-77
2022/01/29 11:53:14;;;;;;;;;;;11.20;99.90;;;;;;4776191;29;20420;-76
2022/01/29 11:55:41;;;;;;;;;;;12.20;99.90;;;;;;4791246;29;19928;-78
2022/01/29 11:58:13;;;;;;;;;;;11.30;99.90;;;;;;4805760;29;19925;-78
2022/01/29 12:00:39;;;;;;;;;;;11.30;99.90;;;;;;4809688;29;19928;-78
2022/01/29 12:03:05;;;;;;;;;;;12.20;99.90;;;;;;4823532;29;19924;-76
2022/01/29 12:05:31;;;;;;;;;;;12.50;99.90;;;;;;4810326;29;19947;-77
2022/01/29 12:08:05;;;;;;;;;;;12.30;99.90;;;;;;4809727;29;19925;-77
2022/01/29 12:10:33;;;;;;;;;;;12.30;99.90;;;;;;4809504;29;20456;-77
2022/01/29 12:13:08;;;;;;;;;;;12.70;99.90;;;;;;4798133;29;19932;-77
2022/01/29 12:15:34;;;;;;;;;;;13.20;99.90;;;;;;4791322;29;20398;-77
2022/01/29 12:18:02;;;;;;;;;;;13.00;99.90;;;;;;4791674;29;20393;-77
2022/01/29 12:20:28;;;;;;;;;;;12.70;99.90;;;;;;4791849;29;19925;-77
2022/01/29 12:23:17;;;;;;;;;;;12.60;99.90;;;;;;4790807;29;19921;-78
2022/01/29 12:25:55;;;;;;;;;;;12.40;99.90;;;;;;4800483;29;19960;-77
2022/01/29 12:28:23;;;;;;;;;;;12.00;99.90;;;;;;4820480;29;19985;-77
2022/01/29 12:30:49;;;;;;;;;;;11.60;99.90;;;;;;4809198;29;19929;-78
2022/01/29 12:33:16;;;;;;;;;;;11.30;99.90;;;;;;4809530;29;19974;-78
2022/01/29 12:35:44;;;;;;;;;;;11.10;99.90;;;;;;4809518;29;19924;-78
2022/01/29 12:38:11;;;;;;;;;;;11.00;99.90;;;;;;4824371;29;20325;-78
2022/01/29 12:40:39;;;;;;;;;;;10.90;99.90;;;;;;4809614;29;20446;-78
2022/01/29 12:43:20;;;;;;;;;;;10.80;99.90;;;;;;4808216;29;20396;-78
2022/01/29 12:45:45;;;;;;;;;;;10.60;99.90;;;;;;4809340;29;19931;-79
2022/01/29 12:48:11;;;;;;;;;;;10.50;99.90;;;;;;4808174;29;20285;-78
2022/01/29 12:50:38;;;;;;;;;;;10.50;99.90;;;;;;4825036;29;19924;-78
2022/01/29 12:53:09;;;;;;;;;;;10.50;99.90;;;;;;4809250;29;20389;-78
2022/01/29 12:55:35;;;;;;;;;;;10.30;99.90;;;;;;4809621;29;19982;-78
2022/01/29 12:58:00;;;;;;;;;;;10.20;99.90;;;;;;4806967;29;19924;-78
2022/01/29 13:00:26;;;;;;;;;;;10.20;99.90;;;;;;4809599;29;20073;-80
2022/01/29 13:02:52;;;;;;;;;;;10.10;99.90;;;;;;4817004;29;19933;-78
2022/01/29 13:05:18;;;;;;;;;;;10.10;99.90;;;;;;4798492;29;19921;-76
2022/01/29 13:07:46;;;;;;;;;;;10.20;99.90;;;;;;4805338;29;20066;-76
2022/01/29 13:10:12;;;;;;;;;;;10.30;99.90;;;;;;4807553;29;19921;-76
2022/01/29 13:12:42;;;;;;;;;;;10.50;99.90;;;;;;4802858;29;19939;-75
2022/01/29 13:15:10;;;;;;;;;;;10.70;99.90;;;;;;4800243;29;19933;-78
2022/01/29 13:17:36;;;;;;;;;;;10.80;99.90;;;;;;4798228;29;20352;-78
2022/01/29 13:20:02;;;;;;;;;;;10.90;99.90;;;;;;4798839;29;19976;-76
2022/01/29 13:22:28;;;;;;;;;;;10.80;99.90;;;;;;4801026;29;20007;-78
2022/01/29 13:25:04;;;;;;;;;;;10.80;99.90;;;;;;4798130;29;20362;-78
2022/01/29 13:27:32;;;;;;;;;;;10.70;99.90;;;;;;4799466;29;19929;-80
2022/01/29 13:30:01;;;;;;;;;;;10.70;99.90;;;;;;4803558;29;20279;-80
2022/01/29 13:32:31;;;;;;;;;;;11.40;99.90;;;;;;4799233;29;19931;-74
2022/01/29 13:34:57;;;;;;;;;;;10.80;99.90;;;;;;4813546;29;19925;-75
2022/01/29 13:37:29;;;;;;;;;;;10.80;99.90;;;;;;4796271;29;19932;-75
2022/01/29 13:39:55;;;;;;;;;;;10.80;99.90;;;;;;4803713;29;19932;-76
2022/01/29 13:42:21;;;;;;;;;;;10.70;99.90;;;;;;4803627;29;19925;-76
2022/01/29 13:45:05;;;;;;;;;;;10.60;99.90;;;;;;4797225;29;19972;-74
2022/01/29 13:47:35;;;;;;;;;;;10.80;99.90;;;;;;4816051;29;19936;-74
2022/01/29 13:50:19;;;;;;;;;;;11.00;99.90;;;;;;4817166;29;19931;-75
2022/01/29 13:52:56;;;;;;;;;;;11.10;99.90;;;;;;4824331;29;19925;-74
2022/01/29 13:55:21;;;;;;;;;;;11.10;99.90;;;;;;4820575;29;19932;-76
2022/01/29 13:57:59;;;;;;;;;;;11.10;99.90;;;;;;4794677;29;19924;-75
2022/01/29 14:00:29;;;;;;;;;;;11.10;99.90;;;;;;4794601;29;20140;-73
2022/01/29 14:02:54;;;;;;;;;;;10.80;99.90;;;;;;4796592;29;19932;-75
2022/01/29 14:19:18;;;;;;;;;;;10.20;99.90;;;;;;4838671;29;19932;-80
2022/01/29 14:21:44;;;;;;;;;;;11.20;99.90;;;;;;4832564;29;19924;-77
2022/01/29 14:24:09;;;;;;;;;;;11.20;99.90;;;;;;4838040;29;19924;-76
2022/01/29 14:26:35;;;;;;;;;;;11.30;99.90;;;;;;4849925;29;20322;-76
2022/01/29 14:29:00;;;;;;;;;;;11.20;99.90;;;;;;4851935;29;19934;-76
2022/01/29 14:31:26;;;;;;;;;;;11.20;99.90;;;;;;4835669;29;20285;-77
2022/01/29 14:33:51;;;;;;;;;;;11.10;99.90;;;;;;4839244;29;19927;-76
2022/01/29 14:36:17;;;;;;;;;;;11.10;99.90;;;;;;4831171;29;20020;-78
2022/01/29 14:38:42;;;;;;;;;;;11.00;99.90;;;;;;4837824;29;19928;-79
2022/01/29 14:41:08;;;;;;;;;;;10.90;99.90;;;;;;4840420;29;19936;-75
2022/01/29 14:43:34;;;;;;;;;;;10.80;99.90;;;;;;4857167;29;19927;-80
2022/01/29 14:46:00;;;;;;;;;;;10.80;99.90;;;;;;4836805;29;19928;-77
2022/01/29 14:48:26;;;;;;;;;;;10.80;99.90;;;;;;4839514;29;19924;-79
2022/01/29 14:50:52;;;;;;;;;;;10.80;99.90;;;;;;4840609;29;19928;-78
2022/01/29 14:53:19;;;;;;;;;;;10.80;99.90;;;;;;4839451;29;20424;-76
2022/01/29 14:55:45;;;;;;;;;;;10.80;99.90;;;;;;4838457;29;20284;-77
2022/01/29 14:58:10;;;;;;;;;;;10.80;99.90;;;;;;4837435;29;19932;-74
2022/01/29 15:00:36;;;;;;;;;;;10.80;99.90;;;;;;4840987;29;19924;-75
2022/01/29 15:03:03;;;;;;;;;;;10.90;99.90;;;;;;4847433;29;19983;-75
2022/01/29 15:05:29;;;;;;;;;;;10.90;99.90;;;;;;4831147;29;19932;-75
2022/01/29 15:07:55;;;;;;;;;;;11.00;99.90;;;;;;4839874;29;19977;-75
2022/01/29 15:10:21;;;;;;;;;;;11.00;99.90;;;;;;4836561;29;20270;-76
2022/01/29 15:12:50;;;;;;;;;;;10.90;99.90;;;;;;4833170;29;19934;-76
2022/01/29 15:15:15;;;;;;;;;;;11.90;99.90;;;;;;4840127;29;20285;-78
2022/01/29 15:17:43;;;;;;;;;;;10.80;99.90;;;;;;4854313;29;19924;-77
2022/01/29 15:20:09;;;;;;;;;;;10.80;99.90;;;;;;4852562;29;20303;-79
2022/01/29 15:22:34;;;;;;;;;;;10.70;99.90;;;;;;4840970;29;19977;-79
2022/01/29 15:25:00;;;;;;;;;;;10.60;99.90;;;;;;4851404;29;20447;-77